Time;durP1;ratioP1;P1;durP2;ratioP2;P2;SDS_P1;SDS_P2;PMS_P1;PMS_P2;Temp;Humidity;BMP_temperature;BMP_pressure;BME280_temperature;BME280_humidity;BME280_pressure;Samples;Min_cycle;Max_cycle;Signal;HPM_P1;HPM_P2
2022/12/15 00:38:43;;;;;;;17.40;13.03;;;;;;;;;;5010667;28;20468;-45
2022/12/15 00:41:09;;;;;;;16.77;12.33;;;;;;;;;;5010962;28;20436;-45
2022/12/15 00:43:35;;;;;;;18.33;12.40;;;;;;;;;;5010673;28;20523;-45
2022/12/15 00:48:47;;;;;;;19.93;13.23;;;;;;;;;;5010714;28;20444;-45
2022/12/15 00:51:14;;;;;;;19.50;13.07;;;;;;;;;;5010766;28;20474;-44
2022/12/15 01:21:11;;;;;;;16.23;12.03;;;;;;;;;;5013833;28;20427;-45
2022/12/15 01:23:40;;;;;;;22.97;13.27;;;;;;;;;;5013912;28;20519;-45
2022/12/15 01:26:06;;;;;;;21.77;13.07;;;;;;;;;;5013583;28;20815;-46
2022/12/15 01:28:32;;;;;;;20.83;13.13;;;;;;;;;;5013524;28;20540;-46
2022/12/15 01:30:58;;;;;;;19.80;12.47;;;;;;;;;;5013672;28;20479;-45
2022/12/15 01:33:24;;;;;;;18.97;12.67;;;;;;;;;;5013609;28;20445;-45
2022/12/15 01:35:57;;;;;;;20.03;13.90;;;;;;;;;;5013483;28;20449;-45
2022/12/15 01:38:25;;;;;;;21.03;13.20;;;;;;;;;;5013445;28;20503;-45
2022/12/15 01:40:54;;;;;;;17.47;12.73;;;;;;;;;;5013307;28;20867;-45
2022/12/15 01:43:21;;;;;;;21.30;12.60;;;;;;;;;;5013263;28;20495;-45
2022/12/15 01:45:52;;;;;;;21.97;13.70;;;;;;;;;;5013499;28;20453;-46
2022/12/15 01:48:20;;;;;;;17.87;13.00;;;;;;;;;;5013344;28;20476;-45
2022/12/15 01:50:48;;;;;;;17.83;13.27;;;;;;;;;;5013110;28;20444;-45
2022/12/15 01:53:15;;;;;;;18.27;12.13;;;;;;;;;;5013227;28;20440;-46
2022/12/15 01:55:42;;;;;;;19.10;13.47;;;;;;;;;;5013144;28;20536;-45
2022/12/15 01:58:11;;;;;;;19.97;11.87;;;;;;;;;;5013147;28;20448;-45
2022/12/15 02:00:37;;;;;;;17.63;12.70;;;;;;;;;;5013020;28;20441;-46
2022/12/15 02:03:04;;;;;;;19.53;12.83;;;;;;;;;;5013000;28;20484;-46
2022/12/15 02:05:31;;;;;;;18.33;12.87;;;;;;;;;;5012061;28;20547;-46
2022/12/15 02:07:57;;;;;;;19.23;12.10;;;;;;;;;;5012859;28;20943;-46
2022/12/15 02:10:26;;;;;;;18.27;12.20;;;;;;;;;;5012984;28;20440;-46
2022/12/15 02:12:56;;;;;;;17.30;11.63;;;;;;;;;;5013311;28;20436;-45
2022/12/15 02:15:27;;;;;;;16.13;11.77;;;;;;;;;;5013163;28;20435;-45
2022/12/15 02:17:57;;;;;;;15.23;11.57;;;;;;;;;;5013153;28;20498;-45
2022/12/15 02:20:34;;;;;;;21.20;12.17;;;;;;;;;;5012804;28;20432;-45
2022/12/15 02:23:19;;;;;;;20.40;12.57;;;;;;;;;;5012640;28;20488;-45
2022/12/15 02:25:55;;;;;;;16.67;11.77;;;;;;;;;;5012399;28;20531;-45
2022/12/15 02:28:27;;;;;;;16.23;10.73;;;;;;;;;;5012623;28;20441;-45
2022/12/15 02:33:45;;;;;;;16.00;12.10;;;;;;;;;;5012245;28;20827;-45
2022/12/15 02:36:15;;;;;;;15.17;11.03;;;;;;;;;;5012412;28;20452;-45
2022/12/15 02:38:41;;;;;;;15.43;11.43;;;;;;;;;;5012106;28;20929;-45
2022/12/15 02:41:22;;;;;;;20.80;12.10;;;;;;;;;;5012384;28;20441;-45
2022/12/15 02:43:48;;;;;;;16.50;11.60;;;;;;;;;;5012054;28;20524;-45
2022/12/15 02:46:20;;;;;;;15.73;11.80;;;;;;;;;;5012225;28;20446;-45
2022/12/15 02:48:53;;;;;;;14.63;11.13;;;;;;;;;;5012064;28;20448;-45
2022/12/15 02:51:29;;;;;;;16.33;12.00;;;;;;;;;;5012112;28;20919;-45
2022/12/15 02:54:04;;;;;;;15.47;11.80;;;;;;;;;;5012323;28;20523;-45
2022/12/15 02:56:32;;;;;;;14.10;10.47;;;;;;;;;;5011501;28;20438;-45
2022/12/15 02:59:09;;;;;;;15.33;10.67;;;;;;;;;;5012019;28;20453;-45
2022/12/15 03:01:40;;;;;;;17.30;11.80;;;;;;;;;;5011844;28;20476;-45
2022/12/15 03:04:07;;;;;;;15.07;11.73;;;;;;;;;;5011922;28;20873;-45
2022/12/15 03:06:33;;;;;;;15.40;11.37;;;;;;;;;;5011753;28;20491;-45
2022/12/15 03:08:59;;;;;;;15.20;10.90;;;;;;;;;;5011683;28;20931;-44
2022/12/15 03:11:25;;;;;;;15.87;11.67;;;;;;;;;;5011864;28;20440;-45
2022/12/15 03:13:52;;;;;;;15.90;11.37;;;;;;;;;;5011794;28;20486;-45
2022/12/15 03:16:18;;;;;;;17.07;12.33;;;;;;;;;;5011576;28;20949;-45
2022/12/15 03:18:46;;;;;;;16.73;11.47;;;;;;;;;;5011766;28;20487;-45
2022/12/15 03:21:12;;;;;;;15.37;11.10;;;;;;;;;;5011625;28;20464;-45
2022/12/15 03:23:38;;;;;;;17.43;12.03;;;;;;;;;;5011741;28;20449;-45
2022/12/15 03:26:05;;;;;;;15.70;11.33;;;;;;;;;;5011540;28;20441;-45
2022/12/15 03:28:32;;;;;;;16.77;11.77;;;;;;;;;;5011687;28;20432;-45
2022/12/15 03:30:58;;;;;;;18.53;11.90;;;;;;;;;;5011539;28;20450;-45
2022/12/15 03:33:24;;;;;;;16.93;11.37;;;;;;;;;;5011905;28;20516;-45
2022/12/15 03:35:51;;;;;;;18.73;11.93;;;;;;;;;;5011437;28;20440;-45
2022/12/15 03:38:17;;;;;;;16.10;11.13;;;;;;;;;;5011393;28;20484;-45
2022/12/15 03:40:43;;;;;;;16.77;11.53;;;;;;;;;;5011285;28;20448;-45
2022/12/15 03:43:09;;;;;;;14.60;10.67;;;;;;;;;;5011566;28;20789;-45
2022/12/15 03:45:35;;;;;;;15.40;10.77;;;;;;;;;;5011267;28;20451;-45
2022/12/15 03:48:01;;;;;;;16.13;11.03;;;;;;;;;;5011384;28;20452;-45
2022/12/15 03:50:28;;;;;;;14.80;11.03;;;;;;;;;;5011232;28;20437;-45
2022/12/15 03:52:56;;;;;;;16.20;11.27;;;;;;;;;;5011563;28;20484;-45
2022/12/15 03:55:23;;;;;;;17.27;11.03;;;;;;;;;;5011379;28;20445;-45
2022/12/15 03:57:50;;;;;;;17.63;10.67;;;;;;;;;;5011116;28;20814;-45
2022/12/15 04:00:17;;;;;;;15.43;11.03;;;;;;;;;;5011219;28;20443;-45
2022/12/15 04:02:43;;;;;;;14.83;11.37;;;;;;;;;;5010969;28;21004;-45
2022/12/15 04:05:13;;;;;;;16.33;11.70;;;;;;;;;;5011503;28;20440;-45
2022/12/15 04:07:39;;;;;;;14.93;10.60;;;;;;;;;;5011262;28;20931;-45
2022/12/15 04:10:07;;;;;;;15.73;10.83;;;;;;;;;;5011218;28;20436;-45
2022/12/15 04:12:33;;;;;;;15.73;10.60;;;;;;;;;;5011151;28;20463;-45
2022/12/15 04:14:59;;;;;;;15.73;11.70;;;;;;;;;;5011227;28;20442;-46
2022/12/15 04:17:25;;;;;;;13.47;10.20;;;;;;;;;;5011473;28;20512;-45
2022/12/15 04:20:09;;;;;;;16.40;11.27;;;;;;;;;;5011387;28;20440;-45
2022/12/15 04:22:35;;;;;;;17.87;11.23;;;;;;;;;;5010976;28;20527;-45
2022/12/15 05:33:54;;;;;;;13.13;10.30;;;;;;;;;;5013735;28;20443;-45
2022/12/15 05:36:20;;;;;;;17.33;12.03;;;;;;;;;;5013615;28;20437;-45
2022/12/15 05:38:47;;;;;;;14.80;10.73;;;;;;;;;;5013004;28;20487;-45
2022/12/15 05:41:13;;;;;;;15.93;11.50;;;;;;;;;;5013492;28;20619;-45
2022/12/15 05:43:39;;;;;;;17.60;11.83;;;;;;;;;;5013389;28;20638;-45
2022/12/15 05:46:05;;;;;;;16.10;11.27;;;;;;;;;;5013613;28;20441;-45
2022/12/15 05:48:31;;;;;;;18.97;12.33;;;;;;;;;;5013182;28;20437;-45
2022/12/15 05:51:02;;;;;;;14.07;11.07;;;;;;;;;;5013157;28;21008;-45
2022/12/15 05:53:28;;;;;;;17.07;11.57;;;;;;;;;;5013194;28;20486;-45
2022/12/15 05:55:59;;;;;;;16.13;10.87;;;;;;;;;;5013343;28;20440;-45
2022/12/15 05:58:25;;;;;;;18.30;11.57;;;;;;;;;;5013295;28;20444;-45
2022/12/15 06:00:51;;;;;;;19.03;11.63;;;;;;;;;;5011922;28;20459;-45
2022/12/15 06:03:17;;;;;;;15.57;10.53;;;;;;;;;;5013045;28;20476;-45
2022/12/15 06:05:43;;;;;;;16.77;11.37;;;;;;;;;;5012953;28;20439;-45
2022/12/15 06:08:11;;;;;;;14.63;11.67;;;;;;;;;;5013171;28;20444;-45
2022/12/15 06:10:37;;;;;;;18.40;11.43;;;;;;;;;;5012842;28;20847;-45
2022/12/15 06:13:04;;;;;;;15.93;11.33;;;;;;;;;;5012912;28;20441;-45
2022/12/15 06:15:30;;;;;;;19.97;13.03;;;;;;;;;;5012522;28;21034;-45
2022/12/15 06:17:56;;;;;;;15.97;12.17;;;;;;;;;;5012622;28;20472;-45
2022/12/15 06:20:23;;;;;;;17.27;12.30;;;;;;;;;;5012960;28;20444;-45
2022/12/15 06:22:49;;;;;;;17.97;12.27;;;;;;;;;;5012477;28;20912;-46
2022/12/15 06:25:16;;;;;;;19.03;12.53;;;;;;;;;;5012588;28;20468;-46
2022/12/15 06:27:42;;;;;;;17.80;11.87;;;;;;;;;;5012502;28;20472;-46
2022/12/15 06:30:09;;;;;;;17.00;10.93;;;;;;;;;;5012368;28;20578;-45
2022/12/15 06:32:35;;;;;;;18.27;12.13;;;;;;;;;;5012359;28;20432;-45
2022/12/15 06:35:01;;;;;;;15.33;10.93;;;;;;;;;;5012335;28;20456;-45
2022/12/15 06:37:27;;;;;;;15.43;11.03;;;;;;;;;;5012277;28;20448;-45
2022/12/15 06:39:53;;;;;;;15.90;11.10;;;;;;;;;;5012040;28;20488;-45
2022/12/15 06:42:20;;;;;;;15.17;11.80;;;;;;;;;;5012186;28;20502;-45
2022/12/15 06:44:46;;;;;;;15.27;12.17;;;;;;;;;;5012054;28;20436;-45
2022/12/15 06:47:12;;;;;;;16.10;11.63;;;;;;;;;;5012006;28;20532;-45
2022/12/15 06:49:38;;;;;;;16.80;11.60;;;;;;;;;;5012300;28;20437;-46
2022/12/15 06:52:04;;;;;;;15.17;12.10;;;;;;;;;;5011857;28;20520;-45
2022/12/15 06:54:30;;;;;;;17.57;11.63;;;;;;;;;;5011960;28;20457;-45
2022/12/15 06:56:56;;;;;;;18.17;12.63;;;;;;;;;;5012102;28;20472;-45
2022/12/15 06:59:24;;;;;;;18.57;12.70;;;;;;;;;;5012151;28;21046;-45
2022/12/15 07:01:50;;;;;;;18.67;12.43;;;;;;;;;;5011770;28;20484;-45
2022/12/15 07:04:17;;;;;;;17.80;12.43;;;;;;;;;;5012011;28;20473;-45
2022/12/15 07:06:44;;;;;;;20.70;12.13;;;;;;;;;;5011839;28;20468;-45
2022/12/15 07:09:14;;;;;;;12.07;9.60;;;;;;;;;;5011913;28;20433;-45
2022/12/15 07:11:40;;;;;;;17.83;12.93;;;;;;;;;;5011891;28;20452;-45
2022/12/15 07:14:06;;;;;;;19.47;12.50;;;;;;;;;;5011997;28;20440;-45
2022/12/15 07:16:34;;;;;;;15.27;11.63;;;;;;;;;;5011647;28;20441;-45
2022/12/15 07:19:00;;;;;;;17.53;11.27;;;;;;;;;;5011648;28;20717;-44
2022/12/15 07:21:26;;;;;;;15.23;10.77;;;;;;;;;;5011743;28;20448;-45
2022/12/15 07:23:52;;;;;;;17.87;11.83;;;;;;;;;;5011380;28;20487;-45
2022/12/15 07:26:18;;;;;;;19.03;12.80;;;;;;;;;;5011743;28;20519;-45
2022/12/15 07:28:44;;;;;;;23.47;13.90;;;;;;;;;;5011465;28;20433;-45
2022/12/15 07:31:10;;;;;;;24.23;15.87;;;;;;;;;;5011733;28;20441;-45
2022/12/15 07:33:37;;;;;;;23.67;16.67;;;;;;;;;;5011486;28;20741;-46
2022/12/15 07:36:04;;;;;;;26.67;16.30;;;;;;;;;;5011675;28;20436;-46
2022/12/15 07:38:30;;;;;;;22.77;13.73;;;;;;;;;;5011186;28;20525;-45
2022/12/15 07:40:59;;;;;;;17.00;12.57;;;;;;;;;;5011358;28;20451;-45
2022/12/15 07:43:26;;;;;;;21.20;13.47;;;;;;;;;;5011272;28;20534;-45
2022/12/15 07:45:52;;;;;;;17.30;12.13;;;;;;;;;;5011513;28;20478;-45
2022/12/15 07:48:18;;;;;;;18.87;12.70;;;;;;;;;;5011275;28;20432;-45
2022/12/15 07:50:46;;;;;;;15.93;11.93;;;;;;;;;;5011161;28;20844;-45
2022/12/15 07:53:12;;;;;;;18.67;12.47;;;;;;;;;;5011310;28;21028;-44
2022/12/15 07:55:38;;;;;;;15.77;11.20;;;;;;;;;;5011227;28;20456;-46
2022/12/15 07:58:04;;;;;;;15.93;11.47;;;;;;;;;;5011175;28;20459;-47
2022/12/15 08:00:30;;;;;;;14.17;10.77;;;;;;;;;;5011256;28;20432;-47
2022/12/15 08:02:56;;;;;;;17.27;11.40;;;;;;;;;;5012036;28;20472;-47
2022/12/15 08:05:22;;;;;;;17.67;11.10;;;;;;;;;;5015283;28;20804;-46
2022/12/15 08:07:49;;;;;;;16.30;11.70;;;;;;;;;;5015076;28;20491;-47
2022/12/15 08:10:16;;;;;;;14.90;11.13;;;;;;;;;;5015112;28;20460;-47
2022/12/15 08:12:42;;;;;;;13.00;10.63;;;;;;;;;;5015000;28;20491;-47
2022/12/15 08:15:09;;;;;;;18.37;11.53;;;;;;;;;;5015309;28;20527;-46
2022/12/15 08:17:36;;;;;;;15.70;11.57;;;;;;;;;;5015055;28;20445;-47
2022/12/15 08:20:02;;;;;;;15.97;11.40;;;;;;;;;;5014900;28;20506;-47
2022/12/15 08:22:28;;;;;;;15.23;11.27;;;;;;;;;;5014869;28;20575;-46
2022/12/15 08:24:56;;;;;;;16.80;11.80;;;;;;;;;;5014912;28;20474;-46
2022/12/15 08:27:23;;;;;;;16.03;11.87;;;;;;;;;;5015048;28;20483;-46
2022/12/15 08:29:49;;;;;;;17.57;11.73;;;;;;;;;;5014755;28;21021;-47
2022/12/15 08:32:15;;;;;;;16.67;13.37;;;;;;;;;;5014723;28;20639;-45
2022/12/15 08:34:41;;;;;;;14.87;11.67;;;;;;;;;;5014725;28;20491;-46
2022/12/15 08:37:07;;;;;;;15.83;11.63;;;;;;;;;;5015066;28;20441;-47
2022/12/15 08:39:33;;;;;;;17.13;12.27;;;;;;;;;;5014419;28;20475;-47
2022/12/15 08:42:01;;;;;;;18.90;11.07;;;;;;;;;;5014445;28;20474;-47
2022/12/15 08:44:27;;;;;;;16.27;12.13;;;;;;;;;;5014618;28;20436;-47
2022/12/15 08:46:53;;;;;;;17.63;12.83;;;;;;;;;;5014796;28;21033;-47
2022/12/15 08:49:19;;;;;;;17.20;11.77;;;;;;;;;;5014637;28;20443;-46
2022/12/15 08:51:45;;;;;;;16.80;11.50;;;;;;;;;;5014558;28;20435;-47
2022/12/15 08:54:11;;;;;;;18.83;13.43;;;;;;;;;;5014586;28;20923;-47
2022/12/15 08:56:37;;;;;;;18.50;13.87;;;;;;;;;;5014723;28;20437;-47
2022/12/15 08:59:05;;;;;;;11.50;9.37;;;;;;;;;;5014503;28;20950;-46
2022/12/15 09:01:31;;;;;;;14.13;10.30;;;;;;;;;;5012559;28;20460;-47
2022/12/15 09:03:58;;;;;;;12.47;9.00;;;;;;;;;;5014030;28;20515;-47
2022/12/15 09:06:25;;;;;;;15.23;10.83;;;;;;;;;;5014315;28;20491;-47
2022/12/15 09:08:53;;;;;;;21.57;13.77;;;;;;;;;;5014125;28;20440;-46
2022/12/15 09:11:19;;;;;;;13.60;10.10;;;;;;;;;;5014027;28;20433;-56
2022/12/15 09:13:45;;;;;;;12.07;9.00;;;;;;;;;;5013289;28;20447;-51
2022/12/15 09:16:14;;;;;;;14.73;9.83;;;;;;;;;;5014049;28;20454;-52
2022/12/15 09:18:41;;;;;;;12.30;9.30;;;;;;;;;;5013984;28;20447;-55
2022/12/15 09:21:07;;;;;;;12.67;9.77;;;;;;;;;;5014141;28;20445;-56
2022/12/15 09:23:34;;;;;;;12.10;9.00;;;;;;;;;;5013909;28;20476;-54
2022/12/15 09:26:00;;;;;;;10.40;8.50;;;;;;;;;;5014099;28;20905;-55
2022/12/15 09:28:28;;;;;;;10.53;8.97;;;;;;;;;;5014236;28;20433;-54
2022/12/15 09:30:54;;;;;;;12.03;8.57;;;;;;;;;;5014951;28;20197;-54
2022/12/15 09:33:21;;;;;;;15.53;10.80;;;;;;;;;;5015141;28;20437;-54
2022/12/15 09:35:49;;;;;;;15.93;10.47;;;;;;;;;;5011925;28;20973;-53
2022/12/15 09:38:15;;;;;;;11.97;9.57;;;;;;;;;;5013472;28;21005;-50
2022/12/15 09:40:41;;;;;;;10.77;9.20;;;;;;;;;;5013748;28;20198;-51
2022/12/15 09:43:14;;;;;;;12.83;10.00;;;;;;;;;;5011922;28;20225;-50
2022/12/15 09:45:42;;;;;;;10.87;9.20;;;;;;;;;;5013463;28;20436;-53
2022/12/15 09:48:10;;;;;;;15.20;10.17;;;;;;;;;;5013834;28;20452;-54
2022/12/15 09:50:38;;;;;;;12.83;10.20;;;;;;;;;;5013288;28;20513;-53
2022/12/15 09:53:05;;;;;;;12.77;10.27;;;;;;;;;;5013157;28;20984;-53
2022/12/15 09:55:32;;;;;;;11.47;9.43;;;;;;;;;;5013173;28;20762;-53
2022/12/15 09:58:00;;;;;;;11.30;8.47;;;;;;;;;;5013059;28;20437;-54
2022/12/15 10:00:30;;;;;;;11.87;9.53;;;;;;;;;;5013080;28;21004;-53
2022/12/15 10:03:15;;;;;;;12.27;9.30;;;;;;;;;;5012817;28;20255;-55
2022/12/15 10:05:54;;;;;;;14.57;9.63;;;;;;;;;;5012922;28;20455;-55
2022/12/15 10:08:22;;;;;;;15.20;9.97;;;;;;;;;;5013127;28;20292;-53
2022/12/15 10:10:54;;;;;;;12.30;9.33;;;;;;;;;;5012809;28;20432;-56
2022/12/15 10:13:22;;;;;;;12.47;8.90;;;;;;;;;;5012837;28;20198;-54
2022/12/15 10:15:50;;;;;;;16.43;10.47;;;;;;;;;;5012689;28;20437;-54
2022/12/15 10:18:21;;;;;;;12.67;10.00;;;;;;;;;;5012640;28;20197;-54
2022/12/15 10:20:47;;;;;;;12.87;9.63;;;;;;;;;;5012912;28;20556;-53
2022/12/15 10:23:15;;;;;;;11.27;9.93;;;;;;;;;;5015217;28;20570;-53
2022/12/15 10:25:45;;;;;;;12.37;10.20;;;;;;;;;;5030954;28;20485;-54
2022/12/15 10:28:21;;;;;;;14.27;9.60;;;;;;;;;;5032271;28;20443;-54
2022/12/15 10:30:50;;;;;;;13.33;10.40;;;;;;;;;;5032128;28;20455;-54
2022/12/15 10:33:20;;;;;;;12.97;10.37;;;;;;;;;;5032184;28;20423;-55
2022/12/15 10:35:47;;;;;;;13.33;9.93;;;;;;;;;;5015913;28;20456;-54
2022/12/15 10:38:21;;;;;;;12.93;10.20;;;;;;;;;;5011657;28;20543;-53
2022/12/15 10:40:48;;;;;;;12.50;10.73;;;;;;;;;;5012209;28;20450;-54
2022/12/15 10:43:18;;;;;;;12.03;10.40;;;;;;;;;;5012254;28;20523;-54
2022/12/15 10:45:44;;;;;;;15.23;10.50;;;;;;;;;;5012395;28;20445;-54
2022/12/15 10:48:17;;;;;;;13.83;10.23;;;;;;;;;;5012286;28;20439;-54
2022/12/15 10:50:43;;;;;;;13.23;9.67;;;;;;;;;;5011942;28;20783;-54
2022/12/15 10:53:29;;;;;;;13.07;9.97;;;;;;;;;;5012345;28;20432;-54
2022/12/15 10:56:02;;;;;;;13.30;10.40;;;;;;;;;;5011909;28;20432;-53
2022/12/15 10:58:28;;;;;;;12.33;9.80;;;;;;;;;;5011864;28;20460;-53
2022/12/15 11:01:04;;;;;;;11.60;10.23;;;;;;;;;;5008296;28;20460;-53
2022/12/15 11:03:35;;;;;;;13.97;10.40;;;;;;;;;;5011786;28;20494;-51
2022/12/15 11:06:01;;;;;;;11.87;10.63;;;;;;;;;;5011674;28;20484;-52
2022/12/15 11:08:28;;;;;;;13.87;10.27;;;;;;;;;;5011975;28;20436;-52
2022/12/15 11:13:41;;;;;;;14.97;10.70;;;;;;;;;;5011771;28;20424;-52
2022/12/15 11:16:13;;;;;;;13.67;10.03;;;;;;;;;;5012016;28;20437;-50
2022/12/15 11:18:42;;;;;;;11.77;10.03;;;;;;;;;;5012117;28;20432;-51
2022/12/15 11:21:11;;;;;;;13.77;10.47;;;;;;;;;;5012224;28;20449;-50
2022/12/15 11:23:54;;;;;;;12.80;10.83;;;;;;;;;;5012298;28;20488;-51
2022/12/15 11:26:29;;;;;;;13.13;10.33;;;;;;;;;;5012127;28;20197;-50
2022/12/15 11:28:59;;;;;;;13.57;10.47;;;;;;;;;;5010057;28;20976;-52
2022/12/15 11:31:29;;;;;;;13.13;10.43;;;;;;;;;;5011640;28;20293;-51
2022/12/15 11:33:55;;;;;;;12.93;10.17;;;;;;;;;;5011295;28;20217;-52
2022/12/15 11:36:28;;;;;;;21.17;14.60;;;;;;;;;;5011328;28;20201;-51
2022/12/15 11:38:58;;;;;;;14.20;11.07;;;;;;;;;;5011094;28;20245;-55
2022/12/15 11:41:32;;;;;;;14.53;10.70;;;;;;;;;;5011442;28;20675;-54
2022/12/15 11:44:14;;;;;;;12.77;11.10;;;;;;;;;;5011049;28;20225;-54
2022/12/15 11:46:46;;;;;;;14.93;9.60;;;;;;;;;;5011279;28;20571;-54
2022/12/15 11:49:23;;;;;;;13.40;11.30;;;;;;;;;;5011287;28;20562;-55
2022/12/15 11:51:51;;;;;;;12.80;10.03;;;;;;;;;;5011339;28;20270;-56
2022/12/15 11:54:20;;;;;;;14.37;10.73;;;;;;;;;;5011245;28;20193;-54
2022/12/15 11:56:48;;;;;;;12.40;10.67;;;;;;;;;;5011078;28;20656;-54
2022/12/15 11:59:42;;;;;;;15.83;12.10;;;;;;;;;;5011100;28;20221;-54
2022/12/15 12:02:14;;;;;;;15.73;12.13;;;;;;;;;;5011764;28;20289;-55
2022/12/15 12:04:43;;;;;;;12.83;11.00;;;;;;;;;;5011328;28;20204;-55
2022/12/15 12:07:15;;;;;;;14.70;11.47;;;;;;;;;;5011613;28;20272;-56
2022/12/15 12:09:46;;;;;;;13.50;9.63;;;;;;;;;;5011396;28;20206;-54
2022/12/15 12:12:18;;;;;;;13.07;11.20;;;;;;;;;;5011273;28;20202;-55
2022/12/15 12:14:54;;;;;;;10.50;9.27;;;;;;;;;;5011458;28;20213;-55
2022/12/15 12:17:26;;;;;;;10.47;9.37;;;;;;;;;;5011453;28;20212;-55
2022/12/15 12:19:53;;;;;;;11.67;9.73;;;;;;;;;;5009954;28;20553;-54
2022/12/15 12:22:22;;;;;;;10.47;9.30;;;;;;;;;;5011177;28;20268;-55
2022/12/15 12:24:50;;;;;;;10.77;9.63;;;;;;;;;;5011285;28;20205;-54
2022/12/15 12:27:21;;;;;;;11.47;9.80;;;;;;;;;;5011285;28;20656;-54
2022/12/15 12:29:50;;;;;;;12.63;10.47;;;;;;;;;;5011196;28;20201;-54
2022/12/15 12:32:21;;;;;;;13.43;10.57;;;;;;;;;;5010773;28;20251;-54
2022/12/15 12:34:54;;;;;;;12.37;10.23;;;;;;;;;;5010966;28;20307;-55
2022/12/15 12:37:23;;;;;;;12.23;9.60;;;;;;;;;;5011226;28;20197;-55
2022/12/15 12:39:51;;;;;;;13.07;10.10;;;;;;;;;;5010815;28;20240;-55
2022/12/15 12:42:20;;;;;;;14.50;11.00;;;;;;;;;;5011023;28;20306;-54
2022/12/15 12:44:46;;;;;;;13.83;11.07;;;;;;;;;;5010620;28;20256;-54
2022/12/15 12:47:14;;;;;;;10.53;9.33;;;;;;;;;;5010924;28;20433;-55
2022/12/15 12:49:44;;;;;;;12.53;10.60;;;;;;;;;;5012854;28;20499;-54
2022/12/15 12:52:18;;;;;;;14.20;10.60;;;;;;;;;;5014877;28;20443;-55
2022/12/15 12:54:49;;;;;;;14.60;10.47;;;;;;;;;;5014580;28;20433;-54
2022/12/15 12:57:34;;;;;;;12.73;10.43;;;;;;;;;;5014446;28;20432;-54
2022/12/15 13:00:01;;;;;;;13.70;10.33;;;;;;;;;;5013955;28;20215;-54
2022/12/15 13:02:43;;;;;;;11.87;10.40;;;;;;;;;;5014042;28;20467;-54
2022/12/15 13:05:24;;;;;;;12.50;10.00;;;;;;;;;;5014189;28;20459;-56
2022/12/15 13:07:53;;;;;;;14.30;10.57;;;;;;;;;;5013851;28;20263;-54
2022/12/15 13:10:20;;;;;;;12.57;10.57;;;;;;;;;;5013942;28;20524;-54
2022/12/15 13:12:47;;;;;;;12.37;11.03;;;;;;;;;;5013973;28;20452;-54
2022/12/15 13:15:18;;;;;;;14.57;10.73;;;;;;;;;;5014039;28;20871;-56
2022/12/15 13:17:48;;;;;;;12.77;10.73;;;;;;;;;;5014046;28;20460;-55
2022/12/15 13:20:26;;;;;;;14.70;10.67;;;;;;;;;;5014125;28;20455;-56
2022/12/15 13:22:52;;;;;;;14.60;11.03;;;;;;;;;;5013891;28;20472;-55
2022/12/15 13:25:36;;;;;;;14.10;11.00;;;;;;;;;;5013955;28;20491;-55
2022/12/15 13:28:16;;;;;;;14.17;11.53;;;;;;;;;;5013920;28;20436;-55
2022/12/15 13:30:57;;;;;;;17.10;12.17;;;;;;;;;;5013784;28;20494;-56
2022/12/15 13:33:23;;;;;;;16.10;12.43;;;;;;;;;;5013606;28;20475;-55
2022/12/15 13:35:51;;;;;;;15.37;12.60;;;;;;;;;;5013696;28;20436;-56
2022/12/15 13:38:17;;;;;;;14.33;11.50;;;;;;;;;;5011393;28;20908;-55
2022/12/15 13:40:53;;;;;;;15.90;13.03;;;;;;;;;;5013083;28;20471;-55
2022/12/15 13:43:36;;;;;;;15.37;12.03;;;;;;;;;;5012965;28;20476;-55
2022/12/15 13:46:09;;;;;;;14.73;12.40;;;;;;;;;;5012990;28;20444;-55
2022/12/15 13:48:38;;;;;;;14.90;12.03;;;;;;;;;;5013090;28;20440;-56
2022/12/15 13:51:18;;;;;;;13.20;11.80;;;;;;;;;;5012941;28;20524;-56
2022/12/15 13:53:46;;;;;;;15.40;11.50;;;;;;;;;;5012866;28;20587;-56
2022/12/15 13:56:23;;;;;;;14.33;11.70;;;;;;;;;;5013049;28;20803;-56
2022/12/15 13:58:53;;;;;;;13.73;12.20;;;;;;;;;;5013083;28;20853;-56
2022/12/15 14:01:20;;;;;;;14.13;12.30;;;;;;;;;;5012872;28;20503;-56
2022/12/15 14:03:56;;;;;;;15.83;12.13;;;;;;;;;;5012479;28;20487;-55
2022/12/15 14:06:34;;;;;;;14.73;12.50;;;;;;;;;;5012845;28;20954;-56
2022/12/15 14:09:00;;;;;;;16.23;12.70;;;;;;;;;;5012425;28;20539;-56
2022/12/15 14:11:29;;;;;;;14.93;11.87;;;;;;;;;;5012601;28;20448;-54
2022/12/15 14:13:58;;;;;;;15.47;12.53;;;;;;;;;;5012720;28;20444;-56
2022/12/15 14:16:25;;;;;;;15.80;12.77;;;;;;;;;;5012800;28;20432;-56
2022/12/15 14:19:02;;;;;;;19.57;13.00;;;;;;;;;;5012706;28;20436;-55
2022/12/15 14:21:30;;;;;;;16.63;12.57;;;;;;;;;;5012410;28;20444;-55
2022/12/15 14:24:00;;;;;;;14.83;12.47;;;;;;;;;;5012219;28;20850;-55
2022/12/15 14:26:29;;;;;;;15.13;12.90;;;;;;;;;;5012469;28;20440;-55
2022/12/15 14:28:59;;;;;;;17.10;13.00;;;;;;;;;;5012205;28;20456;-55
2022/12/15 14:31:25;;;;;;;16.43;12.83;;;;;;;;;;5012247;28;20444;-56
2022/12/15 14:33:57;;;;;;;16.93;12.40;;;;;;;;;;5012297;28;21029;-54
2022/12/15 14:36:23;;;;;;;16.90;13.20;;;;;;;;;;5012823;28;20449;-54
2022/12/15 14:38:53;;;;;;;18.47;14.03;;;;;;;;;;5010185;28;20516;-55
2022/12/15 14:41:20;;;;;;;18.33;14.03;;;;;;;;;;5008678;28;20453;-55
2022/12/15 14:43:48;;;;;;;18.60;13.63;;;;;;;;;;5011743;28;20571;-55
2022/12/15 14:46:15;;;;;;;19.23;14.33;;;;;;;;;;5012341;28;20446;-56
2022/12/15 14:48:43;;;;;;;17.70;13.77;;;;;;;;;;5012221;28;20445;-57
2022/12/15 14:51:10;;;;;;;17.57;14.00;;;;;;;;;;5014267;28;20539;-57
2022/12/15 14:53:38;;;;;;;18.70;13.53;;;;;;;;;;5031833;28;20922;-57
2022/12/15 14:56:29;;;;;;;17.10;14.53;;;;;;;;;;5031395;28;20439;-56
2022/12/15 14:59:04;;;;;;;18.97;13.90;;;;;;;;;;5021592;28;20440;-56
2022/12/15 15:01:34;;;;;;;19.67;14.13;;;;;;;;;;5031663;28;20465;-56
2022/12/15 15:04:01;;;;;;;17.53;13.27;;;;;;;;;;5029312;28;20599;-55
2022/12/15 15:06:29;;;;;;;19.17;13.67;;;;;;;;;;5029837;28;20435;-55
2022/12/15 15:08:55;;;;;;;18.27;13.67;;;;;;;;;;5031796;28;20447;-55
2022/12/15 15:11:25;;;;;;;18.13;14.33;;;;;;;;;;5031595;28;20428;-56
2022/12/15 15:13:53;;;;;;;20.40;14.83;;;;;;;;;;5031919;28;20507;-55
2022/12/15 15:16:21;;;;;;;21.57;15.10;;;;;;;;;;5029786;28;20479;-55
2022/12/15 15:18:49;;;;;;;20.03;14.77;;;;;;;;;;5031356;28;20459;-56
2022/12/15 15:21:16;;;;;;;18.57;13.90;;;;;;;;;;5031585;28;20443;-56
2022/12/15 15:23:56;;;;;;;16.63;13.10;;;;;;;;;;5031396;28;20989;-56
2022/12/15 15:26:23;;;;;;;18.53;14.80;;;;;;;;;;5031933;28;20435;-57
2022/12/15 15:28:49;;;;;;;18.00;14.03;;;;;;;;;;5031506;28;20448;-56
2022/12/15 15:31:31;;;;;;;19.23;14.80;;;;;;;;;;5031621;28;20435;-56
2022/12/15 15:33:58;;;;;;;18.37;13.80;;;;;;;;;;5031116;28;20806;-56
2022/12/15 15:36:27;;;;;;;18.60;14.17;;;;;;;;;;5031254;28;20972;-57
2022/12/15 15:38:53;;;;;;;18.77;14.13;;;;;;;;;;5029221;28;20506;-56
2022/12/15 15:41:21;;;;;;;18.67;15.03;;;;;;;;;;5031256;28;20918;-56
2022/12/15 15:43:47;;;;;;;18.73;14.60;;;;;;;;;;5030908;28;20537;-57
2022/12/15 15:46:15;;;;;;;20.90;14.50;;;;;;;;;;5031354;28;20432;-56
2022/12/15 15:48:44;;;;;;;19.03;15.30;;;;;;;;;;5031543;28;20447;-56
2022/12/15 15:51:10;;;;;;;18.30;14.83;;;;;;;;;;5031409;28;20443;-56
2022/12/15 15:53:36;;;;;;;20.53;14.97;;;;;;;;;;5031074;28;20451;-56
2022/12/15 15:56:05;;;;;;;20.97;14.57;;;;;;;;;;5031130;28;20446;-56
2022/12/15 15:58:31;;;;;;;20.47;14.63;;;;;;;;;;5031156;28;20444;-57
2022/12/15 16:00:57;;;;;;;24.40;15.77;;;;;;;;;;5031133;28;20428;-56
2022/12/15 16:03:23;;;;;;;19.83;14.60;;;;;;;;;;5031460;28;20483;-56
2022/12/15 16:05:52;;;;;;;20.10;15.47;;;;;;;;;;5031026;28;20432;-57
2022/12/15 16:08:27;;;;;;;17.27;14.03;;;;;;;;;;5031031;28;20533;-57
2022/12/15 16:10:53;;;;;;;19.63;14.60;;;;;;;;;;5031180;28;20431;-56
2022/12/15 16:13:20;;;;;;;24.63;17.30;;;;;;;;;;5031048;28;20439;-56
2022/12/15 16:15:47;;;;;;;74.60;36.03;;;;;;;;;;5030983;28;20447;-57
2022/12/15 16:18:13;;;;;;;67.23;34.47;;;;;;;;;;5030961;28;20431;-56
2022/12/15 16:20:39;;;;;;;42.77;26.57;;;;;;;;;;5031036;28;20435;-57
2022/12/15 16:23:11;;;;;;;27.33;17.63;;;;;;;;;;5030738;28;20503;-57
2022/12/15 16:25:38;;;;;;;24.80;16.97;;;;;;;;;;5034702;28;20443;-57
2022/12/15 16:28:10;;;;;;;20.70;14.87;;;;;;;;;;5034819;28;20435;-57
2022/12/15 16:30:36;;;;;;;25.80;17.83;;;;;;;;;;5035296;28;20837;-57
2022/12/15 16:33:02;;;;;;;39.63;30.87;;;;;;;;;;5034766;28;20535;-57
2022/12/15 16:35:28;;;;;;;28.83;23.10;;;;;;;;;;5034604;28;20535;-56
2022/12/15 16:37:54;;;;;;;21.73;17.07;;;;;;;;;;5034672;28;20655;-57
2022/12/15 16:40:22;;;;;;;26.33;20.27;;;;;;;;;;5034388;28;20992;-57
2022/12/15 16:42:52;;;;;;;22.87;17.80;;;;;;;;;;5034409;28;20494;-57
2022/12/15 16:45:18;;;;;;;18.87;15.07;;;;;;;;;;5034508;28;20428;-57
2022/12/15 16:47:45;;;;;;;21.27;15.10;;;;;;;;;;5034445;28;20439;-57
2022/12/15 16:50:14;;;;;;;19.33;16.63;;;;;;;;;;5034682;28;20431;-56